Time;durP1;ratioP1;P1;durP2;ratioP2;P2;SDS_P1;SDS_P2;PMS_P1;PMS_P2;Temp;Humidity;BMP_temperature;BMP_pressure;BME280_temperature;BME280_humidity;BME280_pressure;Samples;Min_cycle;Max_cycle;Signal;HPM_P1;HPM_P2
2023/12/29 00:01:18;;;;;;;20.97;5.07;;;;;;;8.60;100.00;99539.94;5063739;28;20078;-84
2023/12/29 00:03:43;;;;;;;11.00;3.35;;;;;;;8.77;100.00;99537.94;5059009;28;20294;-86
2023/12/29 00:06:09;;;;;;;8.57;3.00;;;;;;;8.74;100.00;99465.66;5045946;28;20107;-87
2023/12/29 00:08:36;;;;;;;14.67;2.30;;;;;;;8.92;100.00;99465.28;5057383;28;20033;-86
2023/12/29 00:11:02;;;;;;;12.95;2.28;;;;;;;8.81;100.00;99471.88;5041497;28;20430;-84
2023/12/29 00:13:27;;;;;;;16.00;3.13;;;;;;;8.63;100.00;99502.31;5084475;22;20020;-75
2023/12/29 00:15:53;;;;;;;10.20;3.10;;;;;;;8.59;100.00;99545.41;5030077;28;20653;-76
2023/12/29 00:18:19;;;;;;;17.77;3.20;;;;;;;8.57;100.00;99616.59;5033165;28;20029;-76
2023/12/29 00:20:44;;;;;;;14.90;3.05;;;;;;;8.56;100.00;99620.28;5036515;28;20052;-75
2023/12/29 00:23:10;;;;;;;8.77;3.25;;;;;;;8.61;100.00;99668.44;5028124;28;20025;-76
2023/12/29 00:25:36;;;;;;;13.27;3.50;;;;;;;8.43;100.00;99650.94;5047088;28;20032;-75
2023/12/29 00:28:02;;;;;;;12.38;2.40;;;;;;;8.29;100.00;99601.13;5047111;22;20082;-74
2023/12/29 00:30:32;;;;;;;11.23;2.97;;;;;;;8.30;100.00;99620.56;5055396;28;20036;-75
2023/12/29 00:32:58;;;;;;;8.52;2.50;;;;;;;8.15;100.00;99628.47;5053892;28;20052;-75
2023/12/29 00:35:23;;;;;;;11.40;2.80;;;;;;;8.33;100.00;99676.88;5029237;28;20491;-74
2023/12/29 00:37:50;;;;;;;8.27;2.27;;;;;;;8.21;100.00;99675.63;5044237;28;20398;-74
2023/12/29 00:40:16;;;;;;;10.82;3.30;;;;;;;8.22;100.00;99674.63;5023906;28;20021;-75
2023/12/29 00:42:41;;;;;;;12.20;3.08;;;;;;;8.21;100.00;99672.97;5041142;28;20034;-75
2023/12/29 00:45:07;;;;;;;14.25;2.65;;;;;;;8.26;100.00;99675.91;5028948;28;20089;-75
2023/12/29 00:47:33;;;;;;;9.90;2.75;;;;;;;8.13;100.00;99652.56;5024984;28;20033;-75
2023/12/29 00:49:58;;;;;;;10.70;2.95;;;;;;;8.23;100.00;99652.34;5028634;28;20031;-75
2023/12/29 00:52:24;;;;;;;10.10;2.23;;;;;;;8.22;100.00;99648.88;5030172;28;20029;-75
2023/12/29 00:54:49;;;;;;;9.40;2.10;;;;;;;8.21;100.00;99641.06;5044701;28;20287;-75
2023/12/29 00:57:14;;;;;;;8.20;3.50;;;;;;;8.15;100.00;99625.81;5013597;28;20047;-75
2023/12/29 00:59:41;;;;;;;4.18;1.75;;;;;;;8.19;100.00;99638.59;5047388;28;20086;-75
2023/12/29 01:02:07;;;;;;;7.90;2.40;;;;;;;8.01;100.00;99636.16;5047590;28;20033;-75
2023/12/29 01:04:33;;;;;;;7.32;1.52;;;;;;;8.11;100.00;99629.81;5029636;28;20032;-75
2023/12/29 01:06:59;;;;;;;11.13;2.08;;;;;;;7.96;100.00;99608.44;5029054;28;20519;-75
2023/12/29 01:09:26;;;;;;;9.23;2.22;;;;;;;8.01;100.00;99633.50;5028920;28;20025;-76
2023/12/29 01:11:51;;;;;;;6.75;2.00;;;;;;;7.91;100.00;99616.94;5032012;28;20036;-77
2023/12/29 01:14:17;;;;;;;6.60;2.50;;;;;;;7.90;100.00;99625.91;5025583;28;20041;-76
2023/12/29 01:16:42;;;;;;;9.53;2.80;;;;;;;7.94;100.00;99637.03;5014539;28;20112;-77
2023/12/29 01:19:09;;;;;;;3.38;1.45;;;;;;;7.92;100.00;99631.88;5031370;28;20119;-76
2023/12/29 01:21:37;;;;;;;5.77;2.23;;;;;;;8.09;100.00;99640.63;5029091;28;20460;-76
2023/12/29 01:24:07;;;;;;;8.38;2.03;;;;;;;7.85;100.00;99614.97;5031370;28;20107;-75
2023/12/29 01:26:36;;;;;;;14.15;3.20;;;;;;;7.82;100.00;99626.78;5011847;28;20028;-75
2023/12/29 01:29:02;;;;;;;15.32;3.13;;;;;;;7.87;100.00;99638.72;5020826;28;20041;-75
2023/12/29 01:31:31;;;;;;;8.27;2.50;;;;;;;7.93;100.00;99641.50;5049042;28;20059;-75
2023/12/29 01:33:56;;;;;;;13.55;4.97;;;;;;;7.86;100.00;99627.25;5031211;28;20471;-78
2023/12/29 01:36:22;;;;;;;6.70;2.60;;;;;;;7.93;100.00;99638.03;5013313;28;20088;-76
2023/12/29 01:38:48;;;;;;;8.80;3.10;;;;;;;8.06;100.00;99634.84;5044836;28;20036;-76
2023/12/29 01:41:14;;;;;;;11.90;3.23;;;;;;;8.11;100.00;99632.47;5034859;28;20029;-76
2023/12/29 01:43:58;;;;;;;14.50;4.07;;;;;;;8.13;100.00;99625.16;5038165;28;20106;-76
2023/12/29 01:46:30;;;;;;;11.65;3.38;;;;;;;8.00;100.00;99626.53;5036725;28;20064;-77
2023/12/29 01:48:58;;;;;;;8.13;2.72;;;;;;;7.97;100.00;99626.06;5004406;28;20041;-78
2023/12/29 01:51:25;;;;;;;22.83;4.28;;;;;;;8.13;100.00;99623.31;5045714;28;20538;-76
2023/12/29 01:53:57;;;;;;;24.60;4.28;;;;;;;8.13;100.00;99598.56;5049021;28;20021;-77
2023/12/29 01:56:22;;;;;;;15.75;3.88;;;;;;;7.99;100.00;99590.31;5031683;28;20037;-76
2023/12/29 01:58:49;;;;;;;11.95;3.28;;;;;;;8.15;100.00;99594.72;5014629;28;20037;-76
2023/12/29 02:01:17;;;;;;;13.52;4.45;;;;;;;8.21;100.00;99582.56;5025142;28;20029;-76
2023/12/29 02:03:43;;;;;;;6.43;2.85;;;;;;;8.13;100.00;99580.78;5027030;28;20429;-76
2023/12/29 02:06:10;;;;;;;11.00;3.00;;;;;;;8.19;100.00;99557.97;5011313;28;20068;-76
2023/12/29 02:08:37;;;;;;;11.07;4.03;;;;;;;8.29;100.00;99555.94;5022591;28;20079;-75
2023/12/29 02:11:03;;;;;;;8.27;3.95;;;;;;;8.24;100.00;99534.34;5010400;28;20095;-76
2023/12/29 02:13:29;;;;;;;10.85;2.42;;;;;;;8.32;100.00;99536.13;5040148;28;20048;-77
2023/12/29 02:15:59;;;;;;;17.20;3.50;;;;;;;8.20;100.00;99533.06;5023187;28;20071;-76
2023/12/29 02:18:30;;;;;;;8.13;3.20;;;;;;;8.22;100.00;99545.16;5010887;28;20250;-76
2023/12/29 02:20:55;;;;;;;17.30;3.58;;;;;;;8.31;100.00;99531.81;5019030;28;20037;-76
2023/12/29 02:23:20;;;;;;;13.47;3.67;;;;;;;8.20;100.00;99520.59;5019051;28;20017;-77
2023/12/29 02:25:46;;;;;;;10.03;3.60;;;;;;;8.22;100.00;99512.44;5027627;28;20044;-77
2023/12/29 02:28:22;;;;;;;11.70;5.20;;;;;;;8.36;100.00;99506.34;5024771;28;20040;-77
2023/12/29 02:31:09;;;;;;;15.90;3.60;;;;;;;8.32;100.00;99506.88;5029798;28;20041;-76
2023/12/29 02:33:40;;;;;;;16.27;4.72;;;;;;;8.37;100.00;99504.50;5045041;28;20021;-78
2023/12/29 02:36:06;;;;;;;12.63;3.17;;;;;;;8.32;100.00;99520.19;5007432;28;20104;-77
2023/12/29 02:38:32;;;;;;;14.32;4.63;;;;;;;8.25;100.00;99514.75;5021826;28;20036;-76
2023/12/29 02:40:59;;;;;;;11.65;4.07;;;;;;;8.29;100.00;99532.00;5025200;28;20037;-77
2023/12/29 02:43:25;;;;;;;10.70;3.65;;;;;;;8.43;100.00;99502.00;5029104;28;20896;-77
2023/12/29 02:45:50;;;;;;;12.02;3.47;;;;;;;8.42;100.00;99489.69;5021454;28;20043;-78
2023/12/29 02:48:16;;;;;;;10.57;3.95;;;;;;;8.37;100.00;99480.56;5034959;28;20655;-78
2023/12/29 02:50:41;;;;;;;11.87;2.73;;;;;;;8.32;100.00;99482.94;5029368;28;20068;-76
2023/12/29 02:53:08;;;;;;;10.70;2.43;;;;;;;8.26;100.00;99489.78;5007895;28;20031;-78
2023/12/29 02:55:33;;;;;;;9.07;2.70;;;;;;;8.27;100.00;99485.31;5026748;28;20145;-78
2023/12/29 02:57:58;;;;;;;13.97;3.80;;;;;;;8.33;100.00;99490.72;5035758;28;20109;-78
2023/12/29 03:00:24;;;;;;;17.47;3.53;;;;;;;8.33;100.00;99501.38;5031462;28;20311;-79
2023/12/29 03:02:49;;;;;;;17.07;4.23;;;;;;;8.29;100.00;99496.56;5032040;28;20075;-79
2023/12/29 03:05:14;;;;;;;13.05;4.53;;;;;;;8.22;100.00;99491.16;5013384;28;20091;-79
2023/12/29 03:07:41;;;;;;;14.18;3.30;;;;;;;8.22;100.00;99499.16;5024690;28;20035;-80
2023/12/29 03:10:07;;;;;;;11.37;3.30;;;;;;;8.29;100.00;99532.00;5036352;28;20053;-79
2023/12/29 03:12:33;;;;;;;19.35;4.32;;;;;;;8.26;100.00;99516.38;5019239;28;20053;-79
2023/12/29 03:14:59;;;;;;;14.45;4.00;;;;;;;8.15;100.00;99514.16;5020309;28;20083;-79
2023/12/29 03:17:25;;;;;;;15.35;3.63;;;;;;;8.17;100.00;99522.75;5007020;28;20105;-80
2023/12/29 03:19:52;;;;;;;14.55;3.58;;;;;;;8.24;100.00;99495.31;5009833;28;20072;-79
2023/12/29 03:22:18;;;;;;;7.10;2.72;;;;;;;8.24;100.00;99466.06;5032021;28;20048;-80
2023/12/29 03:24:43;;;;;;;12.10;3.50;;;;;;;8.34;100.00;99449.03;5029470;28;20029;-79
2023/12/29 03:27:08;;;;;;;11.60;3.10;;;;;;;8.38;100.00;99423.69;5021051;28;20047;-79
2023/12/29 03:29:35;;;;;;;9.80;2.70;;;;;;;8.31;100.00;99418.31;5026531;28;20021;-79
2023/12/29 03:32:00;;;;;;;9.63;2.67;;;;;;;8.38;100.00;99391.78;5019322;28;20044;-79
2023/12/29 03:34:25;;;;;;;8.63;3.53;;;;;;;8.31;100.00;99377.56;5035439;28;20039;-79
2023/12/29 03:36:51;;;;;;;13.23;2.23;;;;;;;8.43;100.00;99397.44;5036194;28;20465;-79
2023/12/29 03:39:17;;;;;;;;;;;;;;;8.27;100.00;99363.81;5038569;28;20040;-79
2023/12/29 03:41:43;;;;;;;11.68;3.22;;;;;;;8.35;100.00;99370.88;5036326;28;19996;-79
2023/12/29 03:44:08;;;;;;;11.93;4.83;;;;;;;8.41;100.00;99371.03;5037304;28;20048;-79
2023/12/29 03:46:34;;;;;;;17.13;2.57;;;;;;;8.41;100.00;99364.88;5016462;28;20272;-80
2023/12/29 03:48:59;;;;;;;9.43;2.22;;;;;;;8.45;100.00;99351.03;5026172;28;20056;-78
2023/12/29 03:51:25;;;;;;;12.20;2.53;;;;;;;8.51;100.00;99344.16;5027745;28;20052;-78
2023/12/29 03:53:51;;;;;;;11.38;2.35;;;;;;;8.55;100.00;99339.31;5017319;28;20029;-78
2023/12/29 03:56:18;;;;;;;6.00;1.70;;;;;;;8.52;100.00;99323.69;5018509;28;20028;-79
2023/12/29 03:58:46;;;;;;;10.15;3.30;;;;;;;8.55;100.00;99324.16;5041802;28;20033;-79
2023/12/29 04:01:15;;;;;;;22.80;2.42;;;;;;;8.46;100.00;99298.66;5034273;28;20020;-78
2023/12/29 04:03:41;;;;;;;14.50;2.45;;;;;;;8.58;100.00;99305.16;5017876;28;20098;-77
2023/12/29 04:06:07;;;;;;;14.13;2.28;;;;;;;8.55;100.00;99291.41;5027568;28;20488;-77
2023/12/29 04:08:37;;;;;;;7.15;1.90;;;;;;;8.55;100.00;99286.09;5016602;28;20507;-76
2023/12/29 04:11:03;;;;;;;8.95;2.83;;;;;;;8.60;100.00;99249.13;5025070;28;20116;-76
2023/12/29 04:13:48;;;;;;;7.32;2.33;;;;;;;8.55;100.00;99259.50;5051017;28;20128;-77
2023/12/29 04:16:32;;;;;;;12.63;2.33;;;;;;;8.55;100.00;99248.88;5045362;28;20049;-77
2023/12/29 04:19:16;;;;;;;9.02;1.70;;;;;;;8.54;100.00;99241.88;5031028;28;20047;-77
2023/12/29 04:22:00;;;;;;;7.10;1.35;;;;;;;8.53;100.00;99241.06;5032670;28;20110;-77
2023/12/29 04:24:44;;;;;;;25.20;2.15;;;;;;;8.49;100.00;99233.63;5035653;28;20083;-77
2023/12/29 04:27:28;;;;;;;7.88;1.73;;;;;;;8.45;100.00;99212.75;5047755;28;20052;-77
2023/12/29 04:30:12;;;;;;;7.43;1.92;;;;;;;8.58;100.00;99211.25;5024717;28;20040;-77
2023/12/29 04:32:56;;;;;;;18.40;2.42;;;;;;;8.47;100.00;99198.41;5032558;28;20607;-77
2023/12/29 04:35:40;;;;;;;9.43;1.80;;;;;;;8.49;100.00;99191.91;5043979;28;20110;-77
2023/12/29 04:38:24;;;;;;;11.38;1.70;;;;;;;8.52;100.00;99174.72;5047933;28;20118;-76
2023/12/29 04:41:08;;;;;;;6.18;1.92;;;;;;;8.54;100.00;99178.84;5027728;28;20519;-76
2023/12/29 04:43:52;;;;;;;9.23;2.15;;;;;;;8.50;100.00;99182.06;5029489;28;20033;-76
2023/12/29 04:46:36;;;;;;;9.90;1.63;;;;;;;8.41;100.00;99173.41;5041015;28;20084;-77
2023/12/29 04:49:20;;;;;;;8.80;2.45;;;;;;;8.47;100.00;99179.78;5036881;28;20072;-78
2023/12/29 04:51:48;;;;;;;9.30;2.23;;;;;;;8.54;100.00;99173.53;5030891;28;20072;-76
2023/12/29 04:54:13;;;;;;;11.35;2.25;;;;;;;8.54;100.00;99172.72;5013598;28;20288;-76
2023/12/29 04:56:39;;;;;;;8.52;1.98;;;;;;;8.47;100.00;99164.66;5041671;28;20499;-76
2023/12/29 04:59:04;;;;;;;8.33;2.97;;;;;;;8.47;100.00;99175.28;5018059;28;20041;-76
2023/12/29 05:01:29;;;;;;;5.67;1.50;;;;;;;8.52;100.00;99172.91;5028617;28;20029;-78
2023/12/29 05:03:55;;;;;;;7.47;1.63;;;;;;;8.57;100.00;99182.97;5033420;28;20021;-78
2023/12/29 05:06:20;;;;;;;5.93;2.40;;;;;;;8.56;100.00;99181.34;5007363;28;20044;-76
2023/12/29 05:08:45;;;;;;;9.63;2.00;;;;;;;8.53;100.00;99158.59;5021222;28;20029;-76
2023/12/29 05:11:11;;;;;;;7.03;2.90;;;;;;;8.58;100.00;99168.69;5025082;28;20029;-76
2023/12/29 05:13:36;;;;;;;6.30;1.90;;;;;;;8.35;100.00;99137.69;5036797;28;20022;-76
2023/12/29 05:16:03;;;;;;;6.30;2.23;;;;;;;8.34;100.00;99167.16;5024936;28;20863;-76
2023/12/29 05:18:29;;;;;;;10.18;2.38;;;;;;;8.25;100.00;99137.19;5026475;28;20034;-76
2023/12/29 05:20:55;;;;;;;8.27;1.63;;;;;;;8.30;100.00;99094.91;5019885;28;20064;-76
2023/12/29 05:23:20;;;;;;;7.47;1.40;;;;;;;8.35;100.00;99047.28;5032372;28;20068;-76
2023/12/29 05:25:46;;;;;;;4.30;1.20;;;;;;;8.25;100.00;98988.28;5026194;28;20033;-76
2023/12/29 05:28:11;;;;;;;9.13;1.70;;;;;;;8.40;100.00;98935.88;5031391;28;20726;-76
2023/12/29 05:30:36;;;;;;;4.27;1.00;;;;;;;8.25;100.00;98858.03;4995456;28;20033;-76
2023/12/29 05:33:02;;;;;;;9.10;2.67;;;;;;;8.22;100.00;98818.53;5037252;28;20023;-77
2023/12/29 05:35:28;;;;;;;6.32;1.25;;;;;;;8.20;100.00;98778.03;5028295;28;20522;-75
2023/12/29 05:37:53;;;;;;;8.07;1.27;;;;;;;8.08;100.00;98726.41;5017033;28;20029;-75
2023/12/29 05:40:18;;;;;;;12.47;1.80;;;;;;;8.06;100.00;98715.19;5025875;28;20117;-75
2023/12/29 05:42:44;;;;;;;8.90;1.60;;;;;;;8.01;100.00;98695.31;5024429;28;20381;-76
2023/12/29 05:45:09;;;;;;;4.87;1.20;;;;;;;7.88;100.00;98679.28;5031017;28;20025;-75
2023/12/29 05:47:35;;;;;;;7.00;2.33;;;;;;;7.89;100.00;98683.63;5016371;28;20279;-76
2023/12/29 05:50:00;;;;;;;7.33;1.50;;;;;;;7.92;100.00;98669.94;5016543;28;20021;-76
2023/12/29 05:52:25;;;;;;;6.50;2.03;;;;;;;7.96;100.00;98668.53;5019636;28;20284;-76
2023/12/29 05:54:51;;;;;;;9.27;2.37;;;;;;;7.76;100.00;98627.75;5016990;28;20898;-76
2023/12/29 05:57:16;;;;;;;11.57;1.70;;;;;;;7.88;100.00;98642.09;5016001;28;20898;-75
2023/12/29 05:59:41;;;;;;;9.93;1.47;;;;;;;7.67;100.00;98618.28;5018180;28;20095;-75
2023/12/29 06:02:07;;;;;;;8.73;1.37;;;;;;;7.73;100.00;98652.84;5017014;28;20080;-77
2023/12/29 06:04:32;;;;;;;5.68;1.25;;;;;;;7.81;100.00;98689.06;5015804;28;20036;-75
2023/12/29 06:06:58;;;;;;;9.67;1.90;;;;;;;7.65;100.00;98705.31;5015665;28;20034;-75
2023/12/29 06:09:23;;;;;;;6.53;1.63;;;;;;;7.69;100.00;98733.94;5015902;28;20823;-76
2023/12/29 06:11:49;;;;;;;13.43;2.30;;;;;;;7.67;100.00;98769.69;5023871;28;20630;-75
2023/12/29 06:14:15;;;;;;;;;;;;;;;7.70;100.00;98801.16;5019638;28;20399;-76
2023/12/29 06:16:40;;;;;;;10.82;1.63;;;;;;;7.60;100.00;98823.53;5035950;28;19917;-75
2023/12/29 06:19:06;;;;;;;11.13;2.87;;;;;;;7.59;100.00;98855.63;5025499;28;20057;-76
2023/12/29 06:21:31;;;;;;;14.97;1.67;;;;;;;7.61;100.00;98875.66;5025324;28;20033;-76
2023/12/29 06:23:56;;;;;;;10.80;2.17;;;;;;;7.65;100.00;98909.81;5015626;28;20021;-76
2023/12/29 06:26:22;;;;;;;14.88;3.15;;;;;;;7.77;100.00;98937.50;5018812;28;20045;-75
2023/12/29 06:28:48;;;;;;;15.25;2.22;;;;;;;7.61;100.00;98942.06;5022360;28;20041;-75
2023/12/29 06:31:14;;;;;;;15.20;2.40;;;;;;;7.67;100.00;98993.59;5033620;28;20029;-75
2023/12/29 06:33:43;;;;;;;9.63;2.17;;;;;;;7.71;100.00;99012.66;5027455;28;20031;-75
2023/12/29 06:36:09;;;;;;;7.88;2.15;;;;;;;7.65;100.00;99008.91;5033821;28;20433;-76
2023/12/29 06:38:34;;;;;;;16.48;2.40;;;;;;;7.58;100.00;99024.75;5031986;28;20249;-75
2023/12/29 06:41:02;;;;;;;24.07;3.33;;;;;;;7.67;100.00;99043.25;5029141;28;20598;-75
2023/12/29 06:43:28;;;;;;;17.45;3.25;;;;;;;7.63;100.00;99065.88;5021188;28;20112;-76
2023/12/29 06:45:53;;;;;;;16.98;3.05;;;;;;;7.55;100.00;99082.75;5034225;28;20125;-75
2023/12/29 06:48:18;;;;;;;21.87;3.50;;;;;;;7.56;100.00;99095.84;5039697;28;20100;-75
2023/12/29 06:50:44;;;;;;;19.77;2.83;;;;;;;7.54;100.00;99118.28;5023119;28;20388;-75
2023/12/29 06:53:09;;;;;;;18.85;2.67;;;;;;;7.52;100.00;99147.66;5000872;28;20017;-75
2023/12/29 06:55:35;;;;;;;21.03;4.40;;;;;;;7.49;100.00;99148.03;5024984;28;20037;-75
2023/12/29 06:58:00;;;;;;;18.20;3.47;;;;;;;7.56;100.00;99159.59;5026545;28;20275;-75
2023/12/29 07:00:26;;;;;;;22.20;4.70;;;;;;;7.61;100.00;99173.13;5012511;28;20021;-75
2023/12/29 07:02:51;;;;;;;12.90;3.13;;;;;;;7.57;100.00;99166.53;5028250;28;20514;-75
2023/12/29 07:05:16;;;;;;;19.50;3.40;;;;;;;7.50;100.00;99159.47;5009496;28;20045;-75
2023/12/29 07:07:42;;;;;;;21.77;4.60;;;;;;;7.61;100.00;99178.44;5028211;28;20047;-76
2023/12/29 07:10:07;;;;;;;20.70;3.63;;;;;;;7.56;100.00;99179.97;5010123;28;20048;-75
2023/12/29 07:12:33;;;;;;;24.45;3.95;;;;;;;7.58;100.00;99209.84;5040253;28;20399;-76
2023/12/29 07:14:58;;;;;;;17.83;3.50;;;;;;;7.67;100.00;99230.00;5038108;28;20033;-76
2023/12/29 07:17:24;;;;;;;19.70;3.70;;;;;;;7.50;100.00;99218.72;5039978;28;20053;-76
2023/12/29 07:19:49;;;;;;;18.35;3.30;;;;;;;7.59;100.00;99225.63;5023239;28;20033;-75
2023/12/29 07:22:15;;;;;;;15.90;2.78;;;;;;;7.68;100.00;99236.16;5025420;28;20395;-76
2023/12/29 07:24:41;;;;;;;26.42;3.28;;;;;;;7.63;100.00;99234.03;5040310;28;20040;-75
2023/12/29 07:27:07;;;;;;;26.42;3.72;;;;;;;7.70;100.00;99245.63;5017151;28;20034;-75
2023/12/29 07:29:33;;;;;;;24.88;5.38;;;;;;;7.77;100.00;99246.53;5040529;28;20053;-76
2023/12/29 07:31:59;;;;;;;28.88;5.13;;;;;;;7.71;100.00;99227.84;5031693;28;20033;-76
2023/12/29 07:34:24;;;;;;;22.77;4.63;;;;;;;7.81;100.00;99231.03;5023609;28;20021;-75
2023/12/29 07:36:50;;;;;;;13.90;3.23;;;;;;;7.72;100.00;99222.31;5014559;28;20181;-75
2023/12/29 07:39:15;;;;;;;17.30;3.70;;;;;;;7.71;100.00;99206.59;5033343;28;20488;-75
2023/12/29 07:41:41;;;;;;;15.80;3.17;;;;;;;7.81;100.00;99220.41;5006042;28;20087;-75
2023/12/29 07:44:07;;;;;;;;;;;;;;;7.88;100.00;99221.34;5010294;28;20276;-77
2023/12/29 07:46:32;;;;;;;27.08;4.70;;;;;;;7.89;100.00;99212.38;5039724;28;19913;-75
2023/12/29 07:48:58;;;;;;;18.10;3.53;;;;;;;7.91;100.00;99207.69;5020744;28;20530;-75
2023/12/29 07:51:23;;;;;;;16.87;3.00;;;;;;;7.88;100.00;99202.72;5038806;28;20025;-75
2023/12/29 07:53:48;;;;;;;17.53;4.20;;;;;;;7.89;100.00;99192.94;5031490;28;20136;-75
2023/12/29 07:56:14;;;;;;;17.97;4.43;;;;;;;7.93;100.00;99187.06;5036877;28;20696;-75
2023/12/29 07:58:39;;;;;;;18.50;3.60;;;;;;;8.01;100.00;99205.59;5039791;28;20029;-75
2023/12/29 08:01:05;;;;;;;19.77;3.97;;;;;;;8.01;100.00;99204.78;5017081;28;20041;-75
2023/12/29 08:03:30;;;;;;;21.20;3.00;;;;;;;8.06;100.00;99238.78;5039735;28;20028;-75
2023/12/29 08:05:55;;;;;;;18.10;4.05;;;;;;;8.06;100.00;99260.03;5024403;28;20045;-75
2023/12/29 08:08:21;;;;;;;17.90;3.00;;;;;;;7.99;100.00;99287.34;5017802;28;20550;-75
2023/12/29 08:10:46;;;;;;;25.60;3.37;;;;;;;7.94;100.00;99281.75;5035055;28;20508;-76
2023/12/29 08:13:12;;;;;;;15.30;3.28;;;;;;;8.01;100.00;99257.94;5019977;28;20036;-76
2023/12/29 08:15:37;;;;;;;14.73;3.33;;;;;;;8.06;100.00;99278.66;5023941;28;20041;-75
2023/12/29 08:18:04;;;;;;;21.40;3.67;;;;;;;8.04;100.00;99268.19;5022504;28;20055;-75
2023/12/29 08:20:29;;;;;;;18.08;3.38;;;;;;;8.03;100.00;99250.59;5035745;28;20033;-75
2023/12/29 08:22:56;;;;;;;17.35;3.97;;;;;;;8.02;100.00;99219.69;5025594;28;20079;-75
2023/12/29 08:25:22;;;;;;;24.08;3.47;;;;;;;8.04;100.00;99191.09;5007976;28;20029;-75
2023/12/29 08:27:47;;;;;;;19.45;2.95;;;;;;;8.11;100.00;99156.63;4998976;28;20048;-76
2023/12/29 08:30:13;;;;;;;20.10;4.73;;;;;;;8.12;100.00;99153.78;5009004;28;20029;-75
2023/12/29 08:32:38;;;;;;;21.77;4.78;;;;;;;8.12;100.00;99134.34;5008889;28;20028;-75
2023/12/29 08:35:04;;;;;;;15.67;3.93;;;;;;;8.15;100.00;99126.84;5036408;28;20037;-75
2023/12/29 08:37:29;;;;;;;24.08;3.95;;;;;;;8.06;100.00;99127.97;5018496;28;20045;-75
2023/12/29 08:39:54;;;;;;;19.53;4.23;;;;;;;8.07;100.00;99120.81;5016094;28;20132;-76
2023/12/29 08:42:21;;;;;;;26.57;3.20;;;;;;;8.14;100.00;99129.69;5019463;28;20064;-75
2023/12/29 08:44:46;;;;;;;19.05;4.53;;;;;;;8.10;100.00;99101.81;5030904;28;20156;-75
2023/12/29 08:47:13;;;;;;;22.33;4.40;;;;;;;8.21;100.00;99127.91;5024474;28;20120;-76
2023/12/29 08:49:40;;;;;;;17.10;4.30;;;;;;;8.15;100.00;99099.44;5020765;28;20276;-75
2023/12/29 08:52:06;;;;;;;26.10;3.70;;;;;;;8.24;100.00;99101.78;5007589;28;20125;-75
2023/12/29 08:54:31;;;;;;;25.13;4.18;;;;;;;8.18;100.00;99056.53;5007475;28;20501;-75
2023/12/29 08:56:57;;;;;;;22.40;3.93;;;;;;;8.20;100.00;99094.38;5022974;28;20285;-76
2023/12/29 08:59:23;;;;;;;24.10;3.77;;;;;;;8.22;100.00;99084.38;5009465;28;20296;-76
2023/12/29 09:01:48;;;;;;;26.20;4.07;;;;;;;8.25;100.00;99065.41;5037979;28;20041;-75
2023/12/29 09:04:14;;;;;;;20.33;3.90;;;;;;;8.30;100.00;99052.34;5044934;28;20043;-75
2023/12/29 09:06:39;;;;;;;21.63;3.47;;;;;;;8.40;100.00;99057.38;5038320;28;20115;-75
2023/12/29 09:09:04;;;;;;;30.97;4.37;;;;;;;8.40;100.00;99052.88;5035702;28;20078;-75
2023/12/29 09:11:30;;;;;;;26.40;4.50;;;;;;;8.43;100.00;99041.88;5037995;28;20504;-75
2023/12/29 09:13:55;;;;;;;20.77;3.87;;;;;;;8.34;100.00;99007.59;5005549;28;20034;-75
2023/12/29 09:16:20;;;;;;;36.13;5.17;;;;;;;8.38;100.00;99004.38;5021315;28;20154;-75
2023/12/29 09:18:46;;;;;;;15.77;4.23;;;;;;;8.30;100.00;99007.16;5007027;28;20097;-75
2023/12/29 09:21:12;;;;;;;37.87;5.57;;;;;;;8.40;100.00;99062.69;5035379;28;20701;-75
2023/12/29 09:23:38;;;;;;;25.88;5.03;;;;;;;8.14;100.00;99172.22;5033713;28;20037;-76
2023/12/29 09:26:04;;;;;;;23.33;5.72;;;;;;;8.17;100.00;99288.81;5024856;28;20040;-76
2023/12/29 09:28:33;;;;;;;23.92;4.70;;;;;;;8.14;100.00;99337.03;5038904;28;20028;-76
2023/12/29 09:31:00;;;;;;;26.70;4.63;;;;;;;7.89;100.00;99323.97;5037364;28;20553;-76
2023/12/29 09:33:25;;;;;;;19.60;5.03;;;;;;;8.01;100.00;99367.72;5011183;28;20185;-76
2023/12/29 09:35:51;;;;;;;36.07;5.30;;;;;;;7.93;100.00;99354.47;5005950;28;20633;-76
2023/12/29 09:38:16;;;;;;;23.77;5.15;;;;;;;8.12;100.00;99344.34;5007106;28;20488;-76
2023/12/29 09:40:41;;;;;;;13.93;4.43;;;;;;;8.33;100.00;99255.91;5008584;28;20377;-76
2023/12/29 09:43:08;;;;;;;20.77;3.80;;;;;;;8.32;100.00;99225.00;5029950;28;20675;-76
2023/12/29 09:45:40;;;;;;;21.60;4.75;;;;;;;8.48;100.00;99221.34;5023252;28;20068;-76
2023/12/29 09:48:11;;;;;;;30.42;4.95;;;;;;;8.71;100.00;99183.94;5020418;28;20131;-76
2023/12/29 09:50:37;;;;;;;15.77;3.42;;;;;;;9.85;100.00;99138.56;5022594;28;20502;-75
2023/12/29 09:53:04;;;;;;;17.40;3.72;;;;;;;10.31;100.00;98898.72;5006927;28;20032;-76
2023/12/29 09:55:31;;;;;;;19.50;4.93;;;;;;;10.38;100.00;98623.16;5023158;28;20511;-76
2023/12/29 09:57:59;;;;;;;18.75;3.10;;;;;;;10.42;100.00;98485.66;5029770;28;20617;-76
2023/12/29 10:00:25;;;;;;;20.63;4.95;;;;;;;10.68;100.00;98360.03;5036141;28;20426;-76
2023/12/29 10:02:53;;;;;;;15.20;3.03;;;;;;;10.03;100.00;98176.44;5035372;28;20067;-76
2023/12/29 10:05:18;;;;;;;20.75;3.15;;;;;;;10.30;100.00;98289.00;5021652;28;20522;-76
2023/12/29 10:07:47;;;;;;;16.73;4.40;;;;;;;10.54;100.00;98179.78;5018481;28;20036;-76
2023/12/29 10:10:16;;;;;;;16.92;3.25;;;;;;;10.29;100.00;98118.56;5037367;28;20488;-76
2023/12/29 10:12:42;;;;;;;17.95;3.13;;;;;;;10.33;100.00;98047.72;5038624;28;20082;-76
2023/12/29 10:15:17;;;;;;;14.95;2.90;;;;;;;10.90;100.00;98096.13;5032410;28;20316;-76
2023/12/29 10:18:08;;;;;;;16.50;3.63;;;;;;;10.39;100.00;97947.31;5019878;28;20041;-76
2023/12/29 10:21:01;;;;;;;15.15;3.33;;;;;;;10.52;100.00;98053.81;5023165;28;20032;-76
2023/12/29 10:24:11;;;;;;;18.25;4.00;;;;;;;10.30;100.00;97947.66;5037485;28;20587;-76
2023/12/29 10:26:37;;;;;;;19.38;3.28;;;;;;;10.23;100.00;98122.91;5023694;28;20045;-76
2023/12/29 10:29:02;;;;;;;19.52;3.45;;;;;;;10.03;100.00;98007.72;5034598;28;20045;-76
2023/12/29 10:31:28;;;;;;;17.02;3.38;;;;;;;10.65;100.00;98274.25;5021548;28;20520;-76
2023/12/29 10:34:31;;;;;;;10.85;2.85;;;;;;;10.62;100.00;98170.66;5013759;28;20104;-76
2023/12/29 10:37:03;;;;;;;17.15;2.78;;;;;;;10.17;100.00;98097.13;5020473;28;20118;-76
2023/12/29 10:39:28;;;;;;;18.27;3.05;;;;;;;10.37;100.00;98056.88;5017581;28;20060;-76
2023/12/29 10:42:04;;;;;;;14.80;2.72;;;;;;;10.34;100.00;98073.34;5033232;28;20112;-75
2023/12/29 10:44:30;;;;;;;24.30;4.18;;;;;;;10.03;100.00;98109.81;5008734;28;20095;-76
2023/12/29 10:46:55;;;;;;;15.40;3.30;;;;;;;10.14;100.00;98173.06;5003939;28;20454;-76
2023/12/29 10:49:20;;;;;;;19.63;3.57;;;;;;;9.67;100.00;98074.16;5024616;28;20033;-76
2023/12/29 10:51:46;;;;;;;15.23;2.70;;;;;;;9.65;100.00;98241.38;5035240;28;20430;-75
2023/12/29 10:54:22;;;;;;;13.07;2.40;;;;;;;10.28;100.00;98354.25;5022797;28;20502;-76
2023/12/29 10:56:47;;;;;;;15.05;3.38;;;;;;;10.45;100.00;98243.31;5019497;28;20073;-75
2023/12/29 10:59:12;;;;;;;20.10;4.07;;;;;;;9.48;100.00;98131.91;5019461;28;20179;-76
2023/12/29 11:01:38;;;;;;;11.63;3.53;;;;;;;9.70;100.00;98332.13;5017867;28;20043;-75
2023/12/29 11:04:07;;;;;;;17.17;2.45;;;;;;;9.71;100.00;98287.63;4998747;28;20034;-75
2023/12/29 11:06:44;;;;;;;18.10;2.80;;;;;;;9.48;100.00;98381.44;5022528;28;20408;-76
2023/12/29 11:09:11;;;;;;;15.45;3.03;;;;;;;10.02;100.00;98520.53;5018797;28;20111;-76
2023/12/29 11:11:37;;;;;;;14.50;3.33;;;;;;;10.42;100.00;98465.16;5040621;28;20629;-75
2023/12/29 11:14:03;;;;;;;15.00;2.85;;;;;;;10.37;100.00;98403.63;5043230;28;20033;-75
2023/12/29 11:16:29;;;;;;;20.88;5.95;;;;;;;9.97;100.00;98235.16;5006480;28;20067;-75
2023/12/29 11:18:56;;;;;;;;;;;;;;;9.49;100.00;98356.44;5030104;28;20511;-76
2023/12/29 11:21:22;;;;;;;15.35;3.45;;;;;;;9.54;100.00;98535.09;5020518;28;19913;-75
2023/12/29 11:23:48;;;;;;;18.98;4.40;;;;;;;9.73;100.00;98518.22;5007797;28;20492;-76
2023/12/29 11:26:14;;;;;;;17.45;3.55;;;;;;;9.60;100.00;98450.84;5030365;28;20068;-75
2023/12/29 11:28:40;;;;;;;;;;;;;;;10.26;100.00;98602.47;5001647;28;20040;-75